createdAt,value
2023-02-15T00:00:07.479Z,99.90
2023-02-15T00:02:34.365Z,99.90
2023-02-15T00:05:01.192Z,99.90
2023-02-15T00:27:06.798Z,99.90
2023-02-15T00:29:33.609Z,99.90
2023-02-15T00:34:28.936Z,99.90
2023-02-15T00:41:51.829Z,99.90
2023-02-15T00:46:46.096Z,99.90
2023-02-15T00:59:02.544Z,99.90
2023-02-15T01:01:29.453Z,99.90
2023-02-15T01:11:24.740Z,99.90
2023-02-15T01:13:57.189Z,99.90
2023-02-15T01:16:25.723Z,99.90
2023-02-15T01:18:53.071Z,99.90
2023-02-15T01:21:21.979Z,99.90
2023-02-15T01:26:17.203Z,99.90
2023-02-15T01:28:44.593Z,99.90
2023-02-15T01:31:22.069Z,99.90
2023-02-15T01:33:49.822Z,99.90
2023-02-15T01:36:18.460Z,99.90
2023-02-15T01:38:45.638Z,99.90
2023-02-15T01:43:54.865Z,99.90
2023-02-15T01:46:27.777Z,99.90
2023-02-15T01:49:11.648Z,99.90
2023-02-15T01:51:40.811Z,99.90
2023-02-15T01:54:18.360Z,99.90
2023-02-15T01:59:20.944Z,99.90
2023-02-15T02:01:48.117Z,99.90
2023-02-15T02:04:20.899Z,99.90
2023-02-15T02:06:49.999Z,99.90
2023-02-15T02:09:17.408Z,99.90
2023-02-15T02:11:47.235Z,99.90
2023-02-15T02:16:58.579Z,99.90
2023-02-15T02:19:56.552Z,99.90
2023-02-15T02:22:26.383Z,99.90
2023-02-15T02:25:11.625Z,99.90
2023-02-15T02:27:50.445Z,99.90
2023-02-15T02:33:02.420Z,99.90
2023-02-15T02:35:38.884Z,99.90
2023-02-15T02:38:27.860Z,99.90
2023-02-15T02:41:13.860Z,99.90
2023-02-15T02:43:55.883Z,99.90
2023-02-15T02:46:58.433Z,99.90
2023-02-15T02:49:40.005Z,99.90
2023-02-15T02:52:37.994Z,99.90
2023-02-15T02:55:12.909Z,99.90
2023-02-15T02:58:04.876Z,99.90
2023-02-15T03:00:44.137Z,99.90
2023-02-15T03:03:16.810Z,99.90
2023-02-15T03:05:47.207Z,99.90
2023-02-15T03:08:22.757Z,99.90
2023-02-15T03:10:54.140Z,99.90
2023-02-15T03:13:21.969Z,99.90
2023-02-15T03:16:10.005Z,99.90
2023-02-15T03:18:58.813Z,99.90
2023-02-15T03:21:34.195Z,99.90
2023-02-15T03:24:08.689Z,99.90
2023-02-15T03:26:37.293Z,99.90
2023-02-15T03:29:07.841Z,99.90
2023-02-15T03:31:40.140Z,99.90
2023-02-15T03:34:12.660Z,99.90
2023-02-15T03:37:08.283Z,99.90
2023-02-15T03:39:41.055Z,99.90
2023-02-15T03:42:30.645Z,99.90
2023-02-15T03:45:16.498Z,99.90
2023-02-15T03:47:48.283Z,99.90
2023-02-15T03:50:42.026Z,99.90
2023-02-15T03:53:13.034Z,99.90
2023-02-15T03:55:39.889Z,99.90
2023-02-15T04:01:30.696Z,99.90
2023-02-15T04:04:04.032Z,99.90
2023-02-15T04:09:16.604Z,99.90
2023-02-15T04:19:42.382Z,99.90
2023-02-15T04:27:38.746Z,99.90
2023-02-15T04:30:07.486Z,99.90
2023-02-15T04:35:03.372Z,99.90
2023-02-15T04:39:59.470Z,99.90
2023-02-15T04:42:26.944Z,99.90
2023-02-15T04:57:10.699Z,99.90
2023-02-15T05:06:59.956Z,99.90
2023-02-15T05:09:26.792Z,99.90
2023-02-15T05:14:20.926Z,99.90
2023-02-15T05:16:47.850Z,99.90
2023-02-15T05:24:27.804Z,99.90
2023-02-15T05:34:35.467Z,99.90
2023-02-15T05:37:02.373Z,99.90
2023-02-15T05:42:00.721Z,99.90
2023-02-15T05:46:54.855Z,99.90
2023-02-15T05:49:21.747Z,99.90
2023-02-15T05:51:48.594Z,99.90
2023-02-15T05:56:42.704Z,99.90
2023-02-15T05:59:09.629Z,99.90
2023-02-15T06:01:36.996Z,99.90
2023-02-15T06:06:31.501Z,99.90
2023-02-15T06:11:25.593Z,99.90
2023-02-15T06:13:52.455Z,99.90
2023-02-15T06:21:14.337Z,99.90
2023-02-15T06:28:36.285Z,99.90
2023-02-15T06:38:30.425Z,99.90
2023-02-15T06:43:24.610Z,99.90
2023-02-15T06:45:51.418Z,99.90
2023-02-15T06:50:45.460Z,99.90
2023-02-15T06:58:06.830Z,99.90
2023-02-15T07:05:32.888Z,99.90
2023-02-15T07:08:00.723Z,99.90
2023-02-15T07:20:21.897Z,99.90
2023-02-15T07:25:16.219Z,99.90
2023-02-15T07:30:13.970Z,99.90
2023-02-15T07:33:02.802Z,99.90
2023-02-15T07:35:31.174Z,99.90
2023-02-15T07:37:58.006Z,99.90
2023-02-15T07:47:51.403Z,99.90
2023-02-15T07:52:45.436Z,99.90
2023-02-15T07:57:48.887Z,99.90
2023-02-15T08:00:17.897Z,99.90
2023-02-15T08:03:12.133Z,99.90
2023-02-15T08:05:43.271Z,99.90
2023-02-15T08:08:30.723Z,99.90
2023-02-15T08:11:22.509Z,99.90
2023-02-15T08:13:54.854Z,99.90
2023-02-15T08:23:43.754Z,99.90
2023-02-15T08:26:11.058Z,99.90
2023-02-15T08:28:39.794Z,99.90
2023-02-15T08:31:08.958Z,99.90
2023-02-15T08:33:37.519Z,99.90
2023-02-15T08:36:19.138Z,99.90
2023-02-15T08:38:46.522Z,99.90
2023-02-15T08:41:16.465Z,99.90
2023-02-15T08:43:44.502Z,99.90
2023-02-15T08:46:12.773Z,99.90
2023-02-15T08:51:09.130Z,99.90
2023-02-15T08:53:36.129Z,99.90
2023-02-15T08:58:31.874Z,99.90
2023-02-15T09:05:59.191Z,99.90
2023-02-15T09:10:53.800Z,99.90
2023-02-15T09:20:45.952Z,99.90
2023-02-15T09:25:53.848Z,99.90
2023-02-15T09:28:20.652Z,99.90
2023-02-15T09:33:15.374Z,99.90
2023-02-15T09:40:45.321Z,99.90
2023-02-15T09:43:50.857Z,99.90
2023-02-15T09:46:59.357Z,99.90
2023-02-15T09:49:53.248Z,99.90
2023-02-15T09:52:41.101Z,99.90
2023-02-15T09:55:26.772Z,99.90
2023-02-15T09:57:56.110Z,99.90
2023-02-15T10:03:23.565Z,99.90
2023-02-15T10:06:19.616Z,99.90
2023-02-15T10:08:51.879Z,99.90
2023-02-15T10:11:40.081Z,99.90
2023-02-15T10:14:25.362Z,99.90
2023-02-15T10:16:57.634Z,99.90
2023-02-15T10:19:34.457Z,99.90
2023-02-15T10:22:34.953Z,99.90
2023-02-15T10:25:13.267Z,99.90
2023-02-15T10:27:49.206Z,99.90
2023-02-15T10:30:16.958Z,99.90
2023-02-15T10:32:58.876Z,99.90
2023-02-15T10:35:47.532Z,99.90
2023-02-15T10:38:38.747Z,99.90
2023-02-15T10:41:30.437Z,99.90
2023-02-15T10:46:41.286Z,99.90
2023-02-15T10:49:39.369Z,99.90
2023-02-15T10:54:51.978Z,99.90
2023-02-15T10:57:45.596Z,99.90
2023-02-15T11:00:15.408Z,99.90
2023-02-15T11:02:51.018Z,99.90
2023-02-15T11:05:51.267Z,99.90
2023-02-15T11:11:03.887Z,99.90
2023-02-15T11:13:36.004Z,99.90
2023-02-15T11:16:07.537Z,99.90
2023-02-15T11:21:29.611Z,99.90
2023-02-15T11:23:56.949Z,99.90
2023-02-15T11:26:42.654Z,99.90
2023-02-15T11:29:23.957Z,99.90
2023-02-15T11:31:56.174Z,99.90
2023-02-15T11:34:35.832Z,99.90
2023-02-15T11:37:14.909Z,99.90
2023-02-15T11:42:19.568Z,99.90
2023-02-15T11:45:03.343Z,99.90
2023-02-15T11:49:58.561Z,99.90
2023-02-15T11:52:25.485Z,99.90
2023-02-15T11:54:53.480Z,99.90
2023-02-15T11:57:38.935Z,99.90
2023-02-15T12:00:29.638Z,99.90
2023-02-15T12:02:58.999Z,99.90
2023-02-15T12:05:27.046Z,99.90
2023-02-15T12:07:56.002Z,99.90
2023-02-15T12:10:31.936Z,99.90
2023-02-15T12:13:16.110Z,97.80
2023-02-15T12:15:49.975Z,95.80
2023-02-15T12:18:35.068Z,92.40
2023-02-15T12:21:15.096Z,88.60
2023-02-15T12:23:49.743Z,87.60
2023-02-15T12:26:35.817Z,90.20
2023-02-15T12:29:17.630Z,91.20
2023-02-15T12:31:47.566Z,92.10
2023-02-15T12:34:20.484Z,93.50
2023-02-15T12:36:55.459Z,92.50
2023-02-15T12:39:27.168Z,93.40
2023-02-15T12:41:57.063Z,94.00
2023-02-15T12:44:27.899Z,93.60
2023-02-15T12:47:04.889Z,93.50
2023-02-15T12:49:36.662Z,91.20
2023-02-15T12:52:08.976Z,88.90
2023-02-15T12:54:43.829Z,90.80
2023-02-15T12:57:25.639Z,85.10
2023-02-15T13:00:05.449Z,91.70
2023-02-15T13:02:37.833Z,85.70
2023-02-15T13:05:32.884Z,89.50
2023-02-15T13:08:10.164Z,84.40
2023-02-15T13:10:41.406Z,86.30
2023-02-15T13:13:23.082Z,86.80
2023-02-15T13:15:53.073Z,90.80
2023-02-15T13:18:36.996Z,84.50
2023-02-15T13:21:15.360Z,89.30
2023-02-15T13:23:49.344Z,90.10
2023-02-15T13:26:20.393Z,88.80
2023-02-15T13:28:50.713Z,90.30
2023-02-15T13:31:22.496Z,90.10
2023-02-15T13:34:08.544Z,89.50
2023-02-15T13:36:47.255Z,91.20
2023-02-15T13:39:52.569Z,90.80
2023-02-15T13:42:37.162Z,90.80
2023-02-15T13:45:24.416Z,89.50
2023-02-15T13:48:17.904Z,88.20
2023-02-15T13:50:54.347Z,85.30
2023-02-15T13:53:42.747Z,82.30
2023-02-15T13:56:32.281Z,85.70
2023-02-15T13:59:17.229Z,86.90
2023-02-15T14:02:10.373Z,86.80
2023-02-15T14:05:00.918Z,87.00
2023-02-15T14:07:42.833Z,88.90
2023-02-15T14:10:30.872Z,90.90
2023-02-15T14:13:34.702Z,90.50
2023-02-15T14:16:07.584Z,90.50
2023-02-15T14:18:58.374Z,91.90
2023-02-15T14:21:28.169Z,90.00
2023-02-15T14:23:54.939Z,90.50
2023-02-15T14:26:32.905Z,89.10
2023-02-15T14:29:12.231Z,88.10
2023-02-15T14:31:44.551Z,90.50
2023-02-15T14:34:25.668Z,90.10
2023-02-15T14:36:54.465Z,90.20
2023-02-15T14:39:51.343Z,88.90
2023-02-15T14:42:35.279Z,87.90
2023-02-15T14:45:27.359Z,89.40
2023-02-15T14:48:17.096Z,92.00
2023-02-15T14:50:46.324Z,94.00
2023-02-15T14:53:23.740Z,91.40
2023-02-15T14:56:06.292Z,91.30
2023-02-15T14:58:33.307Z,93.60
2023-02-15T15:01:08.840Z,91.60
2023-02-15T15:03:38.851Z,93.40
2023-02-15T15:06:07.034Z,93.90
2023-02-15T15:08:40.537Z,92.40
2023-02-15T15:11:42.041Z,94.60
2023-02-15T15:14:10.262Z,95.10
2023-02-15T15:19:10.697Z,94.90
2023-02-15T15:21:58.017Z,96.30
2023-02-15T15:24:40.194Z,97.30
2023-02-15T15:27:45.976Z,98.20
2023-02-15T15:30:15.818Z,97.20
2023-02-15T15:32:54.634Z,97.20
2023-02-15T15:35:53.732Z,97.90
2023-02-15T15:38:54.846Z,97.80
2023-02-15T15:41:33.717Z,98.30
2023-02-15T15:44:12.490Z,98.60
2023-02-15T15:46:39.396Z,99.90
2023-02-15T15:49:13.274Z,99.90
2023-02-15T15:51:43.289Z,99.90
2023-02-15T15:54:19.784Z,99.90
2023-02-15T15:56:52.502Z,99.90
2023-02-15T15:59:26.030Z,99.90
2023-02-15T16:04:30.814Z,99.90
2023-02-15T16:07:19.529Z,99.90
2023-02-15T16:10:21.619Z,99.90
2023-02-15T16:12:49.662Z,99.90
2023-02-15T16:15:44.138Z,99.90
2023-02-15T16:18:17.219Z,99.90
2023-02-15T16:21:00.208Z,99.90
2023-02-15T16:23:32.986Z,99.90
2023-02-15T16:26:37.259Z,99.90
2023-02-15T16:29:19.976Z,99.90
2023-02-15T16:32:26.096Z,99.90
2023-02-15T16:37:24.417Z,99.90
2023-02-15T16:39:51.546Z,99.90
2023-02-15T16:42:19.378Z,99.90
2023-02-15T16:44:49.010Z,99.90
2023-02-15T16:47:41.317Z,99.90
2023-02-15T16:50:22.004Z,99.90
2023-02-15T16:55:25.196Z,99.90
2023-02-15T16:57:57.196Z,99.90
2023-02-15T17:00:27.804Z,99.90
2023-02-15T17:03:01.893Z,99.90
2023-02-15T17:05:34.084Z,99.90
2023-02-15T17:08:03.474Z,99.90
2023-02-15T17:13:03.540Z,99.90
2023-02-15T17:15:39.230Z,99.90
2023-02-15T17:18:17.610Z,99.90
2023-02-15T17:20:45.850Z,99.90
2023-02-15T17:23:31.679Z,99.90
2023-02-15T17:26:00.259Z,99.90
2023-02-15T17:28:30.881Z,99.90
2023-02-15T17:30:59.612Z,99.90
2023-02-15T17:33:30.149Z,99.90
2023-02-15T17:36:10.061Z,99.90
2023-02-15T17:38:41.614Z,99.90
2023-02-15T17:43:36.848Z,99.90
2023-02-15T17:46:04.153Z,99.90
2023-02-15T17:48:36.983Z,99.90
2023-02-15T17:51:06.364Z,99.90
2023-02-15T17:58:40.542Z,99.90
2023-02-15T18:01:33.168Z,99.90
2023-02-15T18:12:23.059Z,99.90
2023-02-15T18:14:50.961Z,99.90
2023-02-15T18:17:18.784Z,99.90
2023-02-15T18:19:47.314Z,99.90
2023-02-15T18:22:17.899Z,99.90
2023-02-15T18:27:13.821Z,99.90
2023-02-15T18:32:16.370Z,99.90
2023-02-15T18:37:17.172Z,99.90
2023-02-15T18:39:48.157Z,99.90
2023-02-15T18:42:28.978Z,99.90
2023-02-15T18:45:02.635Z,99.90
2023-02-15T18:47:29.494Z,99.90
2023-02-15T18:49:56.419Z,99.90
2023-02-15T18:52:26.280Z,99.90
2023-02-15T18:55:01.694Z,99.90
2023-02-15T18:57:29.099Z,99.90
2023-02-15T18:59:56.261Z,99.90
2023-02-15T19:04:50.531Z,99.90
2023-02-15T19:07:28.379Z,99.90
2023-02-15T19:09:58.897Z,99.90
2023-02-15T19:12:27.803Z,99.90
2023-02-15T19:17:24.905Z,99.90
2023-02-15T19:19:52.534Z,99.90
2023-02-15T19:22:27.348Z,99.90
2023-02-15T19:24:56.781Z,99.90
2023-02-15T19:27:37.902Z,99.90
2023-02-15T19:30:19.096Z,99.90
2023-02-15T19:32:46.864Z,99.90
2023-02-15T19:35:20.180Z,99.90
2023-02-15T19:38:08.437Z,99.90
2023-02-15T19:40:36.568Z,99.90
2023-02-15T19:43:03.992Z,99.90
2023-02-15T19:45:32.271Z,99.90
2023-02-15T19:48:01.845Z,99.90
2023-02-15T19:50:32.101Z,99.90
2023-02-15T19:55:29.700Z,99.90
2023-02-15T19:57:57.847Z,99.90
2023-02-15T20:02:53.947Z,99.90
2023-02-15T20:05:21.412Z,99.90
2023-02-15T20:07:51.145Z,99.90
2023-02-15T20:10:45.468Z,99.90
2023-02-15T20:13:16.644Z,99.90
2023-02-15T20:15:44.622Z,99.90
2023-02-15T20:20:56.270Z,99.90
2023-02-15T20:23:31.104Z,99.90
2023-02-15T20:26:01.075Z,99.90
2023-02-15T20:28:30.626Z,99.90
2023-02-15T20:30:58.062Z,99.90
2023-02-15T20:35:52.688Z,99.90
2023-02-15T20:38:31.048Z,99.90
2023-02-15T20:41:18.170Z,99.90
2023-02-15T20:43:45.019Z,99.90
2023-02-15T20:48:39.434Z,99.90
2023-02-15T20:58:30.437Z,99.90
2023-02-15T21:00:59.302Z,99.90
2023-02-15T21:03:30.965Z,99.90
2023-02-15T21:05:58.914Z,99.90
2023-02-15T21:08:26.335Z,99.90
2023-02-15T21:10:53.773Z,99.90
2023-02-15T21:13:26.778Z,99.90
2023-02-15T21:15:54.930Z,99.90
2023-02-15T21:18:35.463Z,99.90
2023-02-15T21:21:06.260Z,99.90
2023-02-15T21:23:38.048Z,99.90
2023-02-15T21:26:05.878Z,99.90
2023-02-15T21:35:57.315Z,99.90
2023-02-15T21:38:28.632Z,99.90
2023-02-15T21:41:15.730Z,99.90
2023-02-15T21:46:42.137Z,99.90
2023-02-15T21:51:56.133Z,99.90
2023-02-15T22:01:50.795Z,99.90
2023-02-15T22:04:35.794Z,99.90
2023-02-15T22:07:02.631Z,99.90
2023-02-15T22:11:56.689Z,99.90
2023-02-15T22:14:39.763Z,99.90
2023-02-15T22:17:18.346Z,99.90
2023-02-15T22:19:47.142Z,99.90
2023-02-15T22:27:21.335Z,99.90
2023-02-15T22:32:21.206Z,99.90
2023-02-15T22:34:48.955Z,99.90
2023-02-15T22:37:15.858Z,99.90
2023-02-15T22:42:27.513Z,99.90
2023-02-15T22:44:56.964Z,99.90
2023-02-15T22:47:27.647Z,99.90
2023-02-15T22:49:54.960Z,99.90
2023-02-15T22:52:22.157Z,99.90
2023-02-15T22:54:49.349Z,99.90
2023-02-15T22:57:28.752Z,99.90
2023-02-15T23:07:19.332Z,99.90
2023-02-15T23:12:29.047Z,99.90
2023-02-15T23:14:57.333Z,99.90
2023-02-15T23:17:24.145Z,99.90
2023-02-15T23:22:18.804Z,99.90
2023-02-15T23:24:52.846Z,99.90
2023-02-15T23:27:38.263Z,99.90
2023-02-15T23:30:15.872Z,99.90
2023-02-15T23:35:15.407Z,99.90
2023-02-15T23:37:42.377Z,99.90
2023-02-15T23:40:33.502Z,99.90
2023-02-15T23:48:13.798Z,99.90
2023-02-15T23:53:10.078Z,99.90
2023-02-15T23:55:40.847Z,99.90
2023-02-15T23:58:15.030Z,99.90
